sensor_id;sensor_type;location;lat;lon;timestamp;P1;durP1;ratioP1;P2;durP2;ratioP2
65461;SDS011;53236;43.666;18.444;2022-12-07T00:01:21;17.43;;;10.83;;
65461;SDS011;53236;43.666;18.444;2022-12-07T00:03:52;17.83;;;10.50;;
65461;SDS011;53236;43.666;18.444;2022-12-07T00:06:19;13.83;;;9.10;;
65461;SDS011;53236;43.666;18.444;2022-12-07T00:08:46;10.20;;;6.70;;
65461;SDS011;53236;43.666;18.444;2022-12-07T00:11:16;9.90;;;5.83;;
65461;SDS011;53236;43.666;18.444;2022-12-07T00:13:43;5.80;;;3.80;;
65461;SDS011;53236;43.666;18.444;2022-12-07T00:16:14;7.50;;;4.07;;
65461;SDS011;53236;43.666;18.444;2022-12-07T00:18:41;8.53;;;4.87;;
65461;SDS011;53236;43.666;18.444;2022-12-07T00:23:35;9.20;;;5.73;;
65461;SDS011;53236;43.666;18.444;2022-12-07T00:28:37;9.43;;;6.40;;
65461;SDS011;53236;43.666;18.444;2022-12-07T00:31:05;9.63;;;5.87;;
65461;SDS011;53236;43.666;18.444;2022-12-07T00:33:36;4.70;;;2.20;;
65461;SDS011;53236;43.666;18.444;2022-12-07T00:36:04;3.47;;;2.27;;
65461;SDS011;53236;43.666;18.444;2022-12-07T00:38:33;5.90;;;2.33;;
65461;SDS011;53236;43.666;18.444;2022-12-07T00:41:19;3.33;;;2.17;;
65461;SDS011;53236;43.666;18.444;2022-12-07T00:43:47;7.10;;;3.28;;
65461;SDS011;53236;43.666;18.444;2022-12-07T00:46:13;6.93;;;4.60;;
65461;SDS011;53236;43.666;18.444;2022-12-07T00:48:40;7.00;;;3.80;;
65461;SDS011;53236;43.666;18.444;2022-12-07T00:51:06;6.13;;;3.57;;
65461;SDS011;53236;43.666;18.444;2022-12-07T00:53:35;7.43;;;3.90;;
65461;SDS011;53236;43.666;18.444;2022-12-07T00:56:05;15.53;;;8.63;;
65461;SDS011;53236;43.666;18.444;2022-12-07T00:58:31;19.40;;;10.87;;
65461;SDS011;53236;43.666;18.444;2022-12-07T01:00:59;35.60;;;18.77;;
65461;SDS011;53236;43.666;18.444;2022-12-07T01:03:27;32.20;;;17.33;;
65461;SDS011;53236;43.666;18.444;2022-12-07T01:05:54;50.97;;;25.43;;
65461;SDS011;53236;43.666;18.444;2022-12-07T01:08:21;36.70;;;19.17;;
65461;SDS011;53236;43.666;18.444;2022-12-07T01:10:48;32.03;;;17.77;;
65461;SDS011;53236;43.666;18.444;2022-12-07T01:13:14;21.40;;;12.33;;
65461;SDS011;53236;43.666;18.444;2022-12-07T01:15:41;19.23;;;11.57;;
65461;SDS011;53236;43.666;18.444;2022-12-07T01:18:07;25.27;;;13.73;;
65461;SDS011;53236;43.666;18.444;2022-12-07T01:20:33;18.87;;;11.13;;
65461;SDS011;53236;43.666;18.444;2022-12-07T01:22:59;15.03;;;8.27;;
65461;SDS011;53236;43.666;18.444;2022-12-07T01:25:25;10.83;;;7.10;;
65461;SDS011;53236;43.666;18.444;2022-12-07T01:27:51;12.70;;;7.30;;
65461;SDS011;53236;43.666;18.444;2022-12-07T01:30:16;16.70;;;10.20;;
65461;SDS011;53236;43.666;18.444;2022-12-07T01:32:42;13.97;;;9.53;;
65461;SDS011;53236;43.666;18.444;2022-12-07T01:35:08;19.20;;;11.07;;
65461;SDS011;53236;43.666;18.444;2022-12-07T01:37:34;13.33;;;7.43;;
65461;SDS011;53236;43.666;18.444;2022-12-07T01:40:01;12.33;;;7.30;;
65461;SDS011;53236;43.666;18.444;2022-12-07T01:42:28;11.37;;;6.20;;
65461;SDS011;53236;43.666;18.444;2022-12-07T01:47:57;12.23;;;6.17;;
65461;SDS011;53236;43.666;18.444;2022-12-07T01:50:24;10.80;;;6.87;;
65461;SDS011;53236;43.666;18.444;2022-12-07T01:52:53;11.53;;;7.47;;
65461;SDS011;53236;43.666;18.444;2022-12-07T01:55:20;16.30;;;10.30;;
65461;SDS011;53236;43.666;18.444;2022-12-07T01:57:47;29.20;;;14.33;;
65461;SDS011;53236;43.666;18.444;2022-12-07T02:00:15;20.80;;;11.47;;
65461;SDS011;53236;43.666;18.444;2022-12-07T02:02:51;16.00;;;10.50;;
65461;SDS011;53236;43.666;18.444;2022-12-07T02:05:21;15.33;;;9.33;;
65461;SDS011;53236;43.666;18.444;2022-12-07T02:07:48;17.40;;;11.03;;
65461;SDS011;53236;43.666;18.444;2022-12-07T02:12:47;11.33;;;8.03;;
65461;SDS011;53236;43.666;18.444;2022-12-07T02:15:25;9.60;;;6.13;;
65461;SDS011;53236;43.666;18.444;2022-12-07T02:18:24;9.27;;;5.67;;
65461;SDS011;53236;43.666;18.444;2022-12-07T02:23:52;9.83;;;5.10;;
65461;SDS011;53236;43.666;18.444;2022-12-07T02:31:56;29.27;;;16.10;;
65461;SDS011;53236;43.666;18.444;2022-12-07T02:42:56;10.97;;;5.60;;
65461;SDS011;53236;43.666;18.444;2022-12-07T02:45:31;9.13;;;4.33;;
65461;SDS011;53236;43.666;18.444;2022-12-07T02:48:01;8.60;;;3.93;;
65461;SDS011;53236;43.666;18.444;2022-12-07T02:50:28;9.70;;;5.73;;
65461;SDS011;53236;43.666;18.444;2022-12-07T02:52:54;9.57;;;5.20;;
65461;SDS011;53236;43.666;18.444;2022-12-07T02:55:23;6.93;;;4.53;;
65461;SDS011;53236;43.666;18.444;2022-12-07T02:58:02;4.63;;;3.10;;
65461;SDS011;53236;43.666;18.444;2022-12-07T03:00:37;6.17;;;3.10;;
65461;SDS011;53236;43.666;18.444;2022-12-07T03:03:13;8.67;;;2.93;;
65461;SDS011;53236;43.666;18.444;2022-12-07T03:13:59;3.87;;;2.70;;
65461;SDS011;53236;43.666;18.444;2022-12-07T03:16:37;5.20;;;3.10;;
65461;SDS011;53236;43.666;18.444;2022-12-07T03:19:08;9.85;;;5.45;;
65461;SDS011;53236;43.666;18.444;2022-12-07T03:21:39;8.90;;;5.20;;
65461;SDS011;53236;43.666;18.444;2022-12-07T03:24:08;8.97;;;3.30;;
65461;SDS011;53236;43.666;18.444;2022-12-07T03:26:38;6.23;;;2.70;;
65461;SDS011;53236;43.666;18.444;2022-12-07T03:29:12;5.67;;;3.13;;
65461;SDS011;53236;43.666;18.444;2022-12-07T03:31:48;4.37;;;2.57;;
65461;SDS011;53236;43.666;18.444;2022-12-07T03:34:29;3.50;;;2.57;;
65461;SDS011;53236;43.666;18.444;2022-12-07T03:40:10;15.47;;;7.83;;
65461;SDS011;53236;43.666;18.444;2022-12-07T03:42:47;13.63;;;8.07;;
65461;SDS011;53236;43.666;18.444;2022-12-07T03:45:13;12.20;;;6.70;;
65461;SDS011;53236;43.666;18.444;2022-12-07T03:53:35;12.73;;;7.20;;
65461;SDS011;53236;43.666;18.444;2022-12-07T03:56:09;12.30;;;6.50;;
65461;SDS011;53236;43.666;18.444;2022-12-07T03:58:36;13.53;;;6.73;;
65461;SDS011;53236;43.666;18.444;2022-12-07T04:01:03;11.20;;;6.40;;
65461;SDS011;53236;43.666;18.444;2022-12-07T04:03:28;11.73;;;5.90;;
65461;SDS011;53236;43.666;18.444;2022-12-07T04:05:54;11.83;;;6.20;;
65461;SDS011;53236;43.666;18.444;2022-12-07T04:08:20;11.93;;;5.37;;
65461;SDS011;53236;43.666;18.444;2022-12-07T04:10:46;8.20;;;4.53;;
65461;SDS011;53236;43.666;18.444;2022-12-07T04:13:12;7.93;;;4.90;;
65461;SDS011;53236;43.666;18.444;2022-12-07T04:15:37;7.93;;;4.53;;
65461;SDS011;53236;43.666;18.444;2022-12-07T04:18:03;5.77;;;3.27;;
65461;SDS011;53236;43.666;18.444;2022-12-07T04:20:29;4.17;;;2.90;;
65461;SDS011;53236;43.666;18.444;2022-12-07T04:22:54;5.00;;;2.90;;
65461;SDS011;53236;43.666;18.444;2022-12-07T04:25:20;4.37;;;2.63;;
65461;SDS011;53236;43.666;18.444;2022-12-07T04:27:46;5.67;;;3.03;;
65461;SDS011;53236;43.666;18.444;2022-12-07T04:30:12;4.23;;;2.47;;
65461;SDS011;53236;43.666;18.444;2022-12-07T04:32:37;5.60;;;2.00;;
65461;SDS011;53236;43.666;18.444;2022-12-07T04:35:03;3.50;;;2.03;;
65461;SDS011;53236;43.666;18.444;2022-12-07T04:37:29;6.97;;;1.97;;
65461;SDS011;53236;43.666;18.444;2022-12-07T04:39:55;4.13;;;1.90;;
65461;SDS011;53236;43.666;18.444;2022-12-07T04:42:21;4.40;;;2.13;;
65461;SDS011;53236;43.666;18.444;2022-12-07T04:44:47;5.10;;;2.43;;
65461;SDS011;53236;43.666;18.444;2022-12-07T04:47:12;3.97;;;2.43;;
65461;SDS011;53236;43.666;18.444;2022-12-07T04:49:38;7.33;;;2.37;;
65461;SDS011;53236;43.666;18.444;2022-12-07T04:52:04;5.30;;;2.20;;
65461;SDS011;53236;43.666;18.444;2022-12-07T04:54:29;4.03;;;2.20;;
65461;SDS011;53236;43.666;18.444;2022-12-07T04:56:55;3.50;;;2.03;;
65461;SDS011;53236;43.666;18.444;2022-12-07T04:59:21;4.30;;;2.07;;
65461;SDS011;53236;43.666;18.444;2022-12-07T05:01:46;4.60;;;2.37;;
65461;SDS011;53236;43.666;18.444;2022-12-07T05:04:12;2.90;;;1.90;;
65461;SDS011;53236;43.666;18.444;2022-12-07T05:06:38;6.63;;;4.57;;
65461;SDS011;53236;43.666;18.444;2022-12-07T05:09:04;18.57;;;9.90;;
65461;SDS011;53236;43.666;18.444;2022-12-07T05:11:30;20.10;;;12.87;;
65461;SDS011;53236;43.666;18.444;2022-12-07T05:16:36;17.73;;;11.03;;
65461;SDS011;53236;43.666;18.444;2022-12-07T05:19:03;15.80;;;9.23;;
65461;SDS011;53236;43.666;18.444;2022-12-07T05:21:29;15.03;;;10.27;;
65461;SDS011;53236;43.666;18.444;2022-12-07T05:23:55;21.07;;;13.00;;
65461;SDS011;53236;43.666;18.444;2022-12-07T05:26:21;23.23;;;15.00;;
65461;SDS011;53236;43.666;18.444;2022-12-07T05:28:50;25.80;;;15.30;;
65461;SDS011;53236;43.666;18.444;2022-12-07T05:31:17;21.90;;;15.27;;
65461;SDS011;53236;43.666;18.444;2022-12-07T05:33:42;24.87;;;15.33;;
65461;SDS011;53236;43.666;18.444;2022-12-07T05:36:08;19.20;;;13.67;;
65461;SDS011;53236;43.666;18.444;2022-12-07T05:38:34;23.40;;;13.33;;
65461;SDS011;53236;43.666;18.444;2022-12-07T05:41:00;16.50;;;11.40;;
65461;SDS011;53236;43.666;18.444;2022-12-07T05:43:30;15.53;;;9.93;;
65461;SDS011;53236;43.666;18.444;2022-12-07T05:45:57;13.50;;;10.07;;
65461;SDS011;53236;43.666;18.444;2022-12-07T05:48:23;9.07;;;4.80;;
65461;SDS011;53236;43.666;18.444;2022-12-07T05:50:49;6.20;;;4.37;;
65461;SDS011;53236;43.666;18.444;2022-12-07T05:53:15;6.27;;;3.93;;
65461;SDS011;53236;43.666;18.444;2022-12-07T05:55:41;7.63;;;4.00;;
65461;SDS011;53236;43.666;18.444;2022-12-07T05:58:07;7.10;;;3.70;;
65461;SDS011;53236;43.666;18.444;2022-12-07T06:00:53;8.37;;;3.90;;
65461;SDS011;53236;43.666;18.444;2022-12-07T06:03:19;13.33;;;8.20;;
65461;SDS011;53236;43.666;18.444;2022-12-07T06:05:45;12.57;;;8.43;;
65461;SDS011;53236;43.666;18.444;2022-12-07T06:08:11;25.33;;;15.40;;
65461;SDS011;53236;43.666;18.444;2022-12-07T06:10:36;55.73;;;32.23;;
65461;SDS011;53236;43.666;18.444;2022-12-07T06:13:02;20.90;;;12.97;;
65461;SDS011;53236;43.666;18.444;2022-12-07T06:15:28;57.20;;;34.47;;
65461;SDS011;53236;43.666;18.444;2022-12-07T06:17:53;29.40;;;18.67;;
65461;SDS011;53236;43.666;18.444;2022-12-07T06:20:19;33.63;;;22.40;;
65461;SDS011;53236;43.666;18.444;2022-12-07T06:22:44;35.70;;;21.57;;
65461;SDS011;53236;43.666;18.444;2022-12-07T06:25:10;17.17;;;11.40;;
65461;SDS011;53236;43.666;18.444;2022-12-07T06:27:36;28.37;;;19.57;;
65461;SDS011;53236;43.666;18.444;2022-12-07T06:30:02;30.90;;;21.20;;
65461;SDS011;53236;43.666;18.444;2022-12-07T06:32:32;30.03;;;19.03;;
65461;SDS011;53236;43.666;18.444;2022-12-07T06:34:58;31.70;;;20.37;;
65461;SDS011;53236;43.666;18.444;2022-12-07T06:37:24;27.27;;;19.37;;
65461;SDS011;53236;43.666;18.444;2022-12-07T06:39:50;29.83;;;21.77;;
65461;SDS011;53236;43.666;18.444;2022-12-07T06:42:15;37.20;;;21.70;;
65461;SDS011;53236;43.666;18.444;2022-12-07T06:44:41;18.40;;;12.57;;
65461;SDS011;53236;43.666;18.444;2022-12-07T06:47:07;31.47;;;15.60;;
65461;SDS011;53236;43.666;18.444;2022-12-07T06:49:34;17.00;;;9.70;;
65461;SDS011;53236;43.666;18.444;2022-12-07T06:52:00;21.57;;;11.83;;
65461;SDS011;53236;43.666;18.444;2022-12-07T06:54:25;17.93;;;11.73;;
65461;SDS011;53236;43.666;18.444;2022-12-07T06:56:51;17.37;;;11.00;;
65461;SDS011;53236;43.666;18.444;2022-12-07T06:59:17;14.30;;;8.83;;
65461;SDS011;53236;43.666;18.444;2022-12-07T07:01:42;8.23;;;5.47;;
65461;SDS011;53236;43.666;18.444;2022-12-07T07:04:08;12.97;;;6.97;;
65461;SDS011;53236;43.666;18.444;2022-12-07T07:06:34;19.10;;;11.20;;
65461;SDS011;53236;43.666;18.444;2022-12-07T07:08:59;13.93;;;8.37;;
65461;SDS011;53236;43.666;18.444;2022-12-07T07:11:25;11.97;;;7.33;;
65461;SDS011;53236;43.666;18.444;2022-12-07T07:13:51;11.10;;;5.57;;
65461;SDS011;53236;43.666;18.444;2022-12-07T07:16:16;5.77;;;3.70;;
65461;SDS011;53236;43.666;18.444;2022-12-07T07:18:42;5.83;;;3.63;;
65461;SDS011;53236;43.666;18.444;2022-12-07T07:21:08;9.97;;;4.37;;
65461;SDS011;53236;43.666;18.444;2022-12-07T07:23:34;10.50;;;6.37;;
65461;SDS011;53236;43.666;18.444;2022-12-07T07:25:59;13.20;;;9.23;;
65461;SDS011;53236;43.666;18.444;2022-12-07T07:28:25;10.43;;;6.70;;
65461;SDS011;53236;43.666;18.444;2022-12-07T07:30:51;16.73;;;8.83;;
65461;SDS011;53236;43.666;18.444;2022-12-07T07:33:17;17.80;;;13.37;;
65461;SDS011;53236;43.666;18.444;2022-12-07T07:35:42;24.03;;;18.50;;
65461;SDS011;53236;43.666;18.444;2022-12-07T07:38:08;26.33;;;19.67;;
65461;SDS011;53236;43.666;18.444;2022-12-07T07:40:34;19.73;;;14.40;;
65461;SDS011;53236;43.666;18.444;2022-12-07T07:43:00;15.43;;;11.37;;
65461;SDS011;53236;43.666;18.444;2022-12-07T07:45:26;25.53;;;16.03;;
65461;SDS011;53236;43.666;18.444;2022-12-07T07:47:52;30.47;;;19.97;;
65461;SDS011;53236;43.666;18.444;2022-12-07T07:50:18;30.67;;;21.37;;
65461;SDS011;53236;43.666;18.444;2022-12-07T07:52:44;17.83;;;12.17;;
65461;SDS011;53236;43.666;18.444;2022-12-07T07:55:10;25.23;;;17.50;;
65461;SDS011;53236;43.666;18.444;2022-12-07T07:57:36;36.03;;;20.83;;
65461;SDS011;53236;43.666;18.444;2022-12-07T08:00:04;35.90;;;22.13;;
65461;SDS011;53236;43.666;18.444;2022-12-07T08:02:31;28.90;;;19.77;;
65461;SDS011;53236;43.666;18.444;2022-12-07T08:04:57;33.70;;;20.17;;
65461;SDS011;53236;43.666;18.444;2022-12-07T08:07:23;29.40;;;19.00;;
65461;SDS011;53236;43.666;18.444;2022-12-07T08:09:48;28.73;;;19.53;;
65461;SDS011;53236;43.666;18.444;2022-12-07T08:12:14;42.80;;;22.00;;
65461;SDS011;53236;43.666;18.444;2022-12-07T08:14:39;42.27;;;23.43;;
65461;SDS011;53236;43.666;18.444;2022-12-07T08:17:06;40.43;;;24.63;;
65461;SDS011;53236;43.666;18.444;2022-12-07T08:19:32;54.17;;;28.93;;
65461;SDS011;53236;43.666;18.444;2022-12-07T08:21:58;44.07;;;23.70;;
65461;SDS011;53236;43.666;18.444;2022-12-07T08:24:23;34.50;;;20.73;;
65461;SDS011;53236;43.666;18.444;2022-12-07T08:26:50;30.83;;;18.30;;
65461;SDS011;53236;43.666;18.444;2022-12-07T08:29:16;35.80;;;21.57;;
65461;SDS011;53236;43.666;18.444;2022-12-07T08:31:41;26.73;;;17.77;;
65461;SDS011;53236;43.666;18.444;2022-12-07T08:34:07;43.03;;;25.53;;
65461;SDS011;53236;43.666;18.444;2022-12-07T08:36:36;42.07;;;23.90;;
65461;SDS011;53236;43.666;18.444;2022-12-07T08:39:02;42.73;;;26.53;;
65461;SDS011;53236;43.666;18.444;2022-12-07T08:41:28;47.97;;;27.53;;
65461;SDS011;53236;43.666;18.444;2022-12-07T08:43:54;49.60;;;30.37;;
65461;SDS011;53236;43.666;18.444;2022-12-07T08:46:27;41.07;;;25.83;;
65461;SDS011;53236;43.666;18.444;2022-12-07T08:49:18;40.08;;;24.95;;
65461;SDS011;53236;43.666;18.444;2022-12-07T08:51:48;40.03;;;25.10;;
65461;SDS011;53236;43.666;18.444;2022-12-07T08:54:15;48.00;;;31.40;;
65461;SDS011;53236;43.666;18.444;2022-12-07T08:56:42;46.77;;;28.67;;
65461;SDS011;53236;43.666;18.444;2022-12-07T08:59:09;57.63;;;32.47;;
65461;SDS011;53236;43.666;18.444;2022-12-07T09:01:35;42.30;;;26.53;;
65461;SDS011;53236;43.666;18.444;2022-12-07T09:04:01;43.30;;;27.37;;
65461;SDS011;53236;43.666;18.444;2022-12-07T09:06:27;60.10;;;35.43;;
65461;SDS011;53236;43.666;18.444;2022-12-07T09:08:54;32.27;;;20.80;;
65461;SDS011;53236;43.666;18.444;2022-12-07T09:11:22;38.93;;;24.90;;
65461;SDS011;53236;43.666;18.444;2022-12-07T09:13:48;30.47;;;19.23;;
65461;SDS011;53236;43.666;18.444;2022-12-07T09:16:14;29.20;;;19.90;;
65461;SDS011;53236;43.666;18.444;2022-12-07T09:18:39;31.23;;;19.57;;
65461;SDS011;53236;43.666;18.444;2022-12-07T09:21:06;30.83;;;18.67;;
65461;SDS011;53236;43.666;18.444;2022-12-07T09:23:32;35.77;;;22.80;;
65461;SDS011;53236;43.666;18.444;2022-12-07T09:25:59;32.63;;;21.67;;
65461;SDS011;53236;43.666;18.444;2022-12-07T09:28:29;41.40;;;26.73;;
65461;SDS011;53236;43.666;18.444;2022-12-07T09:30:56;28.67;;;17.93;;
65461;SDS011;53236;43.666;18.444;2022-12-07T09:33:22;27.77;;;18.00;;
65461;SDS011;53236;43.666;18.444;2022-12-07T09:35:48;27.77;;;18.47;;
65461;SDS011;53236;43.666;18.444;2022-12-07T09:38:15;26.30;;;17.30;;
65461;SDS011;53236;43.666;18.444;2022-12-07T09:40:41;28.33;;;18.27;;
65461;SDS011;53236;43.666;18.444;2022-12-07T09:43:41;23.30;;;16.40;;
65461;SDS011;53236;43.666;18.444;2022-12-07T09:46:01;28.37;;;17.63;;
65461;SDS011;53236;43.666;18.444;2022-12-07T09:48:32;28.33;;;18.83;;
65461;SDS011;53236;43.666;18.444;2022-12-07T09:51:02;29.77;;;18.17;;
65461;SDS011;53236;43.666;18.444;2022-12-07T09:53:34;25.30;;;17.40;;
65461;SDS011;53236;43.666;18.444;2022-12-07T09:56:03;27.93;;;18.27;;
65461;SDS011;53236;43.666;18.444;2022-12-07T09:58:29;25.37;;;16.53;;
65461;SDS011;53236;43.666;18.444;2022-12-07T10:00:59;26.13;;;17.00;;
65461;SDS011;53236;43.666;18.444;2022-12-07T10:03:30;30.60;;;19.23;;
65461;SDS011;53236;43.666;18.444;2022-12-07T10:05:56;41.43;;;24.30;;
65461;SDS011;53236;43.666;18.444;2022-12-07T10:08:22;47.53;;;29.17;;
65461;SDS011;53236;43.666;18.444;2022-12-07T10:10:53;45.80;;;29.93;;
65461;SDS011;53236;43.666;18.444;2022-12-07T10:13:22;35.93;;;21.30;;
65461;SDS011;53236;43.666;18.444;2022-12-07T10:16:01;35.70;;;19.97;;
65461;SDS011;53236;43.666;18.444;2022-12-07T10:23:29;42.23;;;24.30;;
65461;SDS011;53236;43.666;18.444;2022-12-07T10:25:55;32.90;;;19.93;;
65461;SDS011;53236;43.666;18.444;2022-12-07T10:28:21;36.40;;;21.57;;
65461;SDS011;53236;43.666;18.444;2022-12-07T10:30:55;40.50;;;24.40;;
65461;SDS011;53236;43.666;18.444;2022-12-07T10:33:27;48.80;;;29.50;;
65461;SDS011;53236;43.666;18.444;2022-12-07T10:35:54;37.03;;;22.03;;
65461;SDS011;53236;43.666;18.444;2022-12-07T10:38:19;33.50;;;18.30;;
65461;SDS011;53236;43.666;18.444;2022-12-07T10:40:45;32.70;;;19.17;;
65461;SDS011;53236;43.666;18.444;2022-12-07T11:10:18;31.80;;;21.33;;
65461;SDS011;53236;43.666;18.444;2022-12-07T11:32:18;25.67;;;15.27;;
65461;SDS011;53236;43.666;18.444;2022-12-07T11:37:25;20.53;;;14.07;;
65461;SDS011;53236;43.666;18.444;2022-12-07T11:40:12;23.53;;;15.70;;
65461;SDS011;53236;43.666;18.444;2022-12-07T11:43:09;18.17;;;12.50;;
65461;SDS011;53236;43.666;18.444;2022-12-07T11:45:44;22.30;;;16.07;;
65461;SDS011;53236;43.666;18.444;2022-12-07T11:48:19;18.20;;;12.70;;
65461;SDS011;53236;43.666;18.444;2022-12-07T11:50:56;21.10;;;14.13;;
65461;SDS011;53236;43.666;18.444;2022-12-07T12:01:29;23.73;;;16.93;;
65461;SDS011;53236;43.666;18.444;2022-12-07T12:04:06;17.07;;;12.00;;
65461;SDS011;53236;43.666;18.444;2022-12-07T12:06:32;17.70;;;12.33;;
65461;SDS011;53236;43.666;18.444;2022-12-07T12:09:13;22.20;;;15.17;;
65461;SDS011;53236;43.666;18.444;2022-12-07T12:22:58;15.23;;;11.13;;
65461;SDS011;53236;43.666;18.444;2022-12-07T12:25:34;18.60;;;11.63;;
65461;SDS011;53236;43.666;18.444;2022-12-07T12:28:15;11.70;;;8.73;;
65461;SDS011;53236;43.666;18.444;2022-12-07T12:31:06;11.00;;;7.53;;
65461;SDS011;53236;43.666;18.444;2022-12-07T12:33:35;19.90;;;14.73;;
65461;SDS011;53236;43.666;18.444;2022-12-07T12:39:07;15.53;;;11.30;;
65461;SDS011;53236;43.666;18.444;2022-12-07T12:54:20;12.83;;;9.17;;
65461;SDS011;53236;43.666;18.444;2022-12-07T12:56:53;16.13;;;11.68;;
65461;SDS011;53236;43.666;18.444;2022-12-07T13:01:56;14.47;;;11.10;;
65461;SDS011;53236;43.666;18.444;2022-12-07T13:15:34;11.20;;;7.30;;
65461;SDS011;53236;43.666;18.444;2022-12-07T13:23:23;47.60;;;31.27;;
65461;SDS011;53236;43.666;18.444;2022-12-07T13:29:17;20.03;;;13.93;;
65461;SDS011;53236;43.666;18.444;2022-12-07T13:31:51;27.10;;;17.07;;
65461;SDS011;53236;43.666;18.444;2022-12-07T13:34:35;16.40;;;11.30;;
65461;SDS011;53236;43.666;18.444;2022-12-07T13:37:21;19.42;;;13.93;;
65461;SDS011;53236;43.666;18.444;2022-12-07T13:42:28;44.63;;;29.97;;
65461;SDS011;53236;43.666;18.444;2022-12-07T13:44:59;26.15;;;17.10;;
65461;SDS011;53236;43.666;18.444;2022-12-07T13:47:46;10.85;;;7.35;;
65461;SDS011;53236;43.666;18.444;2022-12-07T13:50:26;15.67;;;10.63;;
65461;SDS011;53236;43.666;18.444;2022-12-07T13:52:55;14.17;;;10.47;;
65461;SDS011;53236;43.666;18.444;2022-12-07T13:55:21;27.23;;;16.77;;
65461;SDS011;53236;43.666;18.444;2022-12-07T13:57:49;20.33;;;14.10;;
65461;SDS011;53236;43.666;18.444;2022-12-07T14:00:26;28.10;;;17.80;;
65461;SDS011;53236;43.666;18.444;2022-12-07T14:02:58;22.50;;;14.77;;
65461;SDS011;53236;43.666;18.444;2022-12-07T14:10:26;11.60;;;8.43;;
65461;SDS011;53236;43.666;18.444;2022-12-07T14:12:52;18.00;;;11.33;;
65461;SDS011;53236;43.666;18.444;2022-12-07T14:15:22;19.83;;;13.37;;
65461;SDS011;53236;43.666;18.444;2022-12-07T14:17:50;18.07;;;12.63;;
65461;SDS011;53236;43.666;18.444;2022-12-07T14:20:37;13.40;;;8.87;;
65461;SDS011;53236;43.666;18.444;2022-12-07T14:23:04;14.75;;;11.32;;
65461;SDS011;53236;43.666;18.444;2022-12-07T14:25:49;10.40;;;7.43;;
65461;SDS011;53236;43.666;18.444;2022-12-07T14:28:38;10.40;;;7.10;;
65461;SDS011;53236;43.666;18.444;2022-12-07T14:31:03;10.65;;;6.97;;
65461;SDS011;53236;43.666;18.444;2022-12-07T14:33:35;9.33;;;6.50;;
65461;SDS011;53236;43.666;18.444;2022-12-07T14:36:00;8.07;;;5.63;;
65461;SDS011;53236;43.666;18.444;2022-12-07T14:38:26;7.73;;;5.37;;
65461;SDS011;53236;43.666;18.444;2022-12-07T14:40:52;11.27;;;7.30;;
65461;SDS011;53236;43.666;18.444;2022-12-07T14:43:19;13.30;;;9.20;;
65461;SDS011;53236;43.666;18.444;2022-12-07T14:45:45;25.30;;;17.80;;
65461;SDS011;53236;43.666;18.444;2022-12-07T14:48:12;30.83;;;21.47;;
65461;SDS011;53236;43.666;18.444;2022-12-07T14:50:45;30.43;;;18.37;;
65461;SDS011;53236;43.666;18.444;2022-12-07T14:53:18;28.20;;;19.37;;
65461;SDS011;53236;43.666;18.444;2022-12-07T14:55:51;13.20;;;8.23;;
65461;SDS011;53236;43.666;18.444;2022-12-07T14:58:17;11.87;;;8.47;;
65461;SDS011;53236;43.666;18.444;2022-12-07T15:00:43;8.90;;;6.00;;
65461;SDS011;53236;43.666;18.444;2022-12-07T15:03:10;8.63;;;5.20;;
65461;SDS011;53236;43.666;18.444;2022-12-07T15:05:37;9.23;;;5.40;;
65461;SDS011;53236;43.666;18.444;2022-12-07T15:08:04;7.37;;;4.87;;
65461;SDS011;53236;43.666;18.444;2022-12-07T15:10:31;10.23;;;7.17;;
65461;SDS011;53236;43.666;18.444;2022-12-07T15:12:58;14.47;;;9.43;;
65461;SDS011;53236;43.666;18.444;2022-12-07T15:15:43;16.50;;;9.37;;
65461;SDS011;53236;43.666;18.444;2022-12-07T15:18:09;77.77;;;46.37;;
65461;SDS011;53236;43.666;18.444;2022-12-07T15:20:35;46.30;;;27.37;;
65461;SDS011;53236;43.666;18.444;2022-12-07T15:23:00;37.13;;;23.17;;
65461;SDS011;53236;43.666;18.444;2022-12-07T15:25:26;42.80;;;29.20;;
65461;SDS011;53236;43.666;18.444;2022-12-07T15:27:52;43.80;;;29.87;;
65461;SDS011;53236;43.666;18.444;2022-12-07T15:30:17;18.87;;;13.57;;
65461;SDS011;53236;43.666;18.444;2022-12-07T15:32:43;12.97;;;9.37;;
65461;SDS011;53236;43.666;18.444;2022-12-07T15:35:09;21.10;;;14.00;;
65461;SDS011;53236;43.666;18.444;2022-12-07T15:37:34;20.20;;;12.57;;
65461;SDS011;53236;43.666;18.444;2022-12-07T15:40:00;18.10;;;12.33;;
65461;SDS011;53236;43.666;18.444;2022-12-07T15:42:26;28.10;;;17.33;;
65461;SDS011;53236;43.666;18.444;2022-12-07T15:44:52;21.57;;;14.03;;
65461;SDS011;53236;43.666;18.444;2022-12-07T15:47:39;23.27;;;14.73;;
65461;SDS011;53236;43.666;18.444;2022-12-07T15:50:07;20.40;;;12.83;;
65461;SDS011;53236;43.666;18.444;2022-12-07T15:52:35;28.70;;;17.07;;
65461;SDS011;53236;43.666;18.444;2022-12-07T15:55:01;36.73;;;20.80;;
65461;SDS011;53236;43.666;18.444;2022-12-07T15:57:31;40.40;;;22.10;;
65461;SDS011;53236;43.666;18.444;2022-12-07T15:59:57;37.43;;;21.13;;
65461;SDS011;53236;43.666;18.444;2022-12-07T16:02:23;35.43;;;20.47;;
65461;SDS011;53236;43.666;18.444;2022-12-07T16:04:49;30.83;;;18.80;;
65461;SDS011;53236;43.666;18.444;2022-12-07T16:07:16;26.67;;;14.73;;
65461;SDS011;53236;43.666;18.444;2022-12-07T16:09:43;26.27;;;15.93;;
65461;SDS011;53236;43.666;18.444;2022-12-07T16:12:09;23.47;;;15.17;;
65461;SDS011;53236;43.666;18.444;2022-12-07T16:14:36;24.70;;;15.73;;
65461;SDS011;53236;43.666;18.444;2022-12-07T16:17:02;21.63;;;13.77;;
65461;SDS011;53236;43.666;18.444;2022-12-07T16:19:29;24.77;;;16.00;;
65461;SDS011;53236;43.666;18.444;2022-12-07T16:21:55;25.20;;;16.23;;
65461;SDS011;53236;43.666;18.444;2022-12-07T16:24:21;32.20;;;21.90;;
65461;SDS011;53236;43.666;18.444;2022-12-07T16:26:47;34.77;;;23.73;;
65461;SDS011;53236;43.666;18.444;2022-12-07T16:29:13;31.37;;;20.70;;
65461;SDS011;53236;43.666;18.444;2022-12-07T16:31:39;32.03;;;22.67;;
65461;SDS011;53236;43.666;18.444;2022-12-07T16:34:05;33.03;;;23.13;;
65461;SDS011;53236;43.666;18.444;2022-12-07T16:36:32;30.17;;;19.37;;
65461;SDS011;53236;43.666;18.444;2022-12-07T16:38:58;28.27;;;18.97;;
65461;SDS011;53236;43.666;18.444;2022-12-07T16:41:24;31.87;;;20.83;;
65461;SDS011;53236;43.666;18.444;2022-12-07T16:43:50;31.57;;;20.43;;
65461;SDS011;53236;43.666;18.444;2022-12-07T16:46:16;31.90;;;20.70;;
65461;SDS011;53236;43.666;18.444;2022-12-07T16:48:42;32.90;;;20.33;;
65461;SDS011;53236;43.666;18.444;2022-12-07T16:51:09;30.97;;;19.13;;
65461;SDS011;53236;43.666;18.444;2022-12-07T16:53:37;21.83;;;14.47;;
65461;SDS011;53236;43.666;18.444;2022-12-07T16:56:03;29.97;;;20.00;;
65461;SDS011;53236;43.666;18.444;2022-12-07T16:58:34;33.17;;;20.40;;
65461;SDS011;53236;43.666;18.444;2022-12-07T17:00:59;29.43;;;18.90;;
65461;SDS011;53236;43.666;18.444;2022-12-07T17:03:34;37.60;;;23.57;;
65461;SDS011;53236;43.666;18.444;2022-12-07T17:06:00;37.00;;;22.60;;
65461;SDS011;53236;43.666;18.444;2022-12-07T17:08:26;34.90;;;23.40;;
65461;SDS011;53236;43.666;18.444;2022-12-07T17:10:51;85.43;;;50.07;;